sensor_id;sensor_type;location;lat;lon;timestamp;pressure;altitude;pressure_sealevel;temperature;humidity
34482;BME280;20720;48.886;9.388;2022-07-25T00:00:10;98009.28;;;22.64;100.00
34482;BME280;20720;48.886;9.388;2022-07-25T00:02:35;98018.88;;;22.70;100.00
34482;BME280;20720;48.886;9.388;2022-07-25T00:05:01;98020.94;;;22.78;100.00
34482;BME280;20720;48.886;9.388;2022-07-25T00:07:26;98016.78;;;22.67;100.00
34482;BME280;20720;48.886;9.388;2022-07-25T00:09:52;98012.94;;;22.73;100.00
34482;BME280;20720;48.886;9.388;2022-07-25T00:12:17;98016.47;;;22.69;100.00
34482;BME280;20720;48.886;9.388;2022-07-25T00:14:43;98016.59;;;22.54;100.00
34482;BME280;20720;48.886;9.388;2022-07-25T00:17:08;98002.41;;;22.53;100.00
34482;BME280;20720;48.886;9.388;2022-07-25T00:19:33;98004.56;;;22.51;100.00
34482;BME280;20720;48.886;9.388;2022-07-25T00:21:58;98005.53;;;22.36;100.00
34482;BME280;20720;48.886;9.388;2022-07-25T00:24:23;97990.88;;;22.29;100.00
34482;BME280;20720;48.886;9.388;2022-07-25T00:26:49;97990.88;;;22.29;100.00
34482;BME280;20720;48.886;9.388;2022-07-25T00:29:14;97980.47;;;22.27;100.00
34482;BME280;20720;48.886;9.388;2022-07-25T00:31:39;97989.91;;;22.20;100.00
34482;BME280;20720;48.886;9.388;2022-07-25T00:34:04;97987.22;;;22.20;100.00
34482;BME280;20720;48.886;9.388;2022-07-25T00:36:29;97991.56;;;22.11;100.00
34482;BME280;20720;48.886;9.388;2022-07-25T00:38:55;97982.53;;;22.02;100.00
34482;BME280;20720;48.886;9.388;2022-07-25T00:41:20;97983.63;;;22.01;100.00
34482;BME280;20720;48.886;9.388;2022-07-25T00:43:45;97983.13;;;21.99;100.00
34482;BME280;20720;48.886;9.388;2022-07-25T00:46:11;97982.38;;;21.88;100.00
34482;BME280;20720;48.886;9.388;2022-07-25T00:48:36;97976.25;;;21.88;100.00
34482;BME280;20720;48.886;9.388;2022-07-25T00:51:02;97975.16;;;21.89;100.00
34482;BME280;20720;48.886;9.388;2022-07-25T00:53:29;97972.28;;;21.80;100.00
34482;BME280;20720;48.886;9.388;2022-07-25T00:55:54;97969.88;;;21.84;100.00
34482;BME280;20720;48.886;9.388;2022-07-25T00:58:19;97972.03;;;21.82;100.00
34482;BME280;20720;48.886;9.388;2022-07-25T01:00:45;97976.06;;;21.74;100.00
34482;BME280;20720;48.886;9.388;2022-07-25T01:03:10;97970.19;;;21.72;100.00
34482;BME280;20720;48.886;9.388;2022-07-25T01:05:35;97962.22;;;21.62;100.00
34482;BME280;20720;48.886;9.388;2022-07-25T01:08:00;97958.44;;;21.68;100.00
34482;BME280;20720;48.886;9.388;2022-07-25T01:10:26;97963.59;;;21.60;100.00
34482;BME280;20720;48.886;9.388;2022-07-25T01:12:53;97958.56;;;21.53;100.00
34482;BME280;20720;48.886;9.388;2022-07-25T01:15:19;97966.53;;;21.58;100.00
34482;BME280;20720;48.886;9.388;2022-07-25T01:17:44;97965.72;;;21.58;100.00
34482;BME280;20720;48.886;9.388;2022-07-25T01:20:12;97964.16;;;21.57;100.00
34482;BME280;20720;48.886;9.388;2022-07-25T01:22:37;97955.41;;;21.46;100.00
34482;BME280;20720;48.886;9.388;2022-07-25T01:25:02;97955.19;;;21.37;100.00
34482;BME280;20720;48.886;9.388;2022-07-25T01:27:28;97944.97;;;21.49;100.00
34482;BME280;20720;48.886;9.388;2022-07-25T01:29:53;97950.22;;;21.60;100.00
34482;BME280;20720;48.886;9.388;2022-07-25T01:32:18;97946.53;;;21.50;100.00
34482;BME280;20720;48.886;9.388;2022-07-25T01:34:43;97940.88;;;21.18;100.00
34482;BME280;20720;48.886;9.388;2022-07-25T01:37:08;97946.66;;;21.35;100.00
34482;BME280;20720;48.886;9.388;2022-07-25T01:39:33;97943.91;;;21.45;100.00
34482;BME280;20720;48.886;9.388;2022-07-25T01:41:59;97940.72;;;21.43;100.00
34482;BME280;20720;48.886;9.388;2022-07-25T01:44:24;97934.03;;;21.41;100.00
34482;BME280;20720;48.886;9.388;2022-07-25T01:46:50;97935.84;;;21.50;100.00
34482;BME280;20720;48.886;9.388;2022-07-25T01:49:16;97937.00;;;21.39;100.00
34482;BME280;20720;48.886;9.388;2022-07-25T01:51:41;97933.38;;;21.20;100.00
34482;BME280;20720;48.886;9.388;2022-07-25T01:54:06;97931.19;;;21.27;100.00
34482;BME280;20720;48.886;9.388;2022-07-25T01:56:32;97932.56;;;21.25;100.00
34482;BME280;20720;48.886;9.388;2022-07-25T01:58:57;97927.94;;;21.35;100.00
34482;BME280;20720;48.886;9.388;2022-07-25T02:01:22;97927.50;;;21.23;100.00
34482;BME280;20720;48.886;9.388;2022-07-25T02:03:47;97930.13;;;21.28;100.00
34482;BME280;20720;48.886;9.388;2022-07-25T02:06:12;97925.78;;;21.37;100.00
34482;BME280;20720;48.886;9.388;2022-07-25T02:08:37;97929.25;;;21.38;100.00
34482;BME280;20720;48.886;9.388;2022-07-25T02:11:03;97924.91;;;21.47;100.00
34482;BME280;20720;48.886;9.388;2022-07-25T02:13:28;97931.09;;;21.42;100.00
34482;BME280;20720;48.886;9.388;2022-07-25T02:15:53;97926.41;;;21.24;100.00
34482;BME280;20720;48.886;9.388;2022-07-25T02:18:18;97913.81;;;21.30;100.00
34482;BME280;20720;48.886;9.388;2022-07-25T02:20:43;97915.91;;;21.33;100.00
34482;BME280;20720;48.886;9.388;2022-07-25T02:23:09;97911.19;;;21.20;100.00
34482;BME280;20720;48.886;9.388;2022-07-25T02:25:34;97918.63;;;21.28;100.00
34482;BME280;20720;48.886;9.388;2022-07-25T02:28:00;97919.72;;;21.27;100.00
34482;BME280;20720;48.886;9.388;2022-07-25T02:30:25;97928.00;;;21.25;100.00
34482;BME280;20720;48.886;9.388;2022-07-25T02:32:51;97916.81;;;21.18;100.00
34482;BME280;20720;48.886;9.388;2022-07-25T02:35:16;97918.97;;;21.21;100.00
34482;BME280;20720;48.886;9.388;2022-07-25T02:37:41;97911.75;;;21.17;100.00
34482;BME280;20720;48.886;9.388;2022-07-25T02:40:07;97913.63;;;21.16;100.00
34482;BME280;20720;48.886;9.388;2022-07-25T02:42:32;97912.00;;;21.20;100.00
34482;BME280;20720;48.886;9.388;2022-07-25T02:44:57;97905.53;;;21.26;100.00
34482;BME280;20720;48.886;9.388;2022-07-25T02:47:22;97903.84;;;21.02;100.00
34482;BME280;20720;48.886;9.388;2022-07-25T02:49:47;97898.88;;;21.24;100.00
34482;BME280;20720;48.886;9.388;2022-07-25T02:52:13;97895.09;;;21.30;100.00
34482;BME280;20720;48.886;9.388;2022-07-25T02:54:38;97891.09;;;21.27;100.00
34482;BME280;20720;48.886;9.388;2022-07-25T02:57:03;97889.38;;;21.08;100.00
34482;BME280;20720;48.886;9.388;2022-07-25T02:59:28;97887.41;;;21.23;100.00
34482;BME280;20720;48.886;9.388;2022-07-25T03:01:53;97885.91;;;21.41;100.00
34482;BME280;20720;48.886;9.388;2022-07-25T03:04:19;97889.91;;;21.43;100.00
34482;BME280;20720;48.886;9.388;2022-07-25T03:06:44;97900.19;;;21.26;100.00
34482;BME280;20720;48.886;9.388;2022-07-25T03:09:09;97901.25;;;21.25;100.00
34482;BME280;20720;48.886;9.388;2022-07-25T03:11:34;97893.00;;;21.27;100.00
34482;BME280;20720;48.886;9.388;2022-07-25T03:13:59;97898.34;;;21.22;100.00
34482;BME280;20720;48.886;9.388;2022-07-25T03:16:25;97897.06;;;21.14;100.00
34482;BME280;20720;48.886;9.388;2022-07-25T03:18:50;97889.44;;;20.93;100.00
34482;BME280;20720;48.886;9.388;2022-07-25T03:21:16;97882.81;;;20.85;100.00
34482;BME280;20720;48.886;9.388;2022-07-25T03:23:41;97885.78;;;20.74;100.00
34482;BME280;20720;48.886;9.388;2022-07-25T03:26:06;97882.47;;;20.92;100.00
34482;BME280;20720;48.886;9.388;2022-07-25T03:28:31;97882.81;;;20.85;100.00
34482;BME280;20720;48.886;9.388;2022-07-25T03:30:56;97882.03;;;20.80;100.00
34482;BME280;20720;48.886;9.388;2022-07-25T03:33:22;97875.31;;;20.87;100.00
34482;BME280;20720;48.886;9.388;2022-07-25T03:35:47;97870.50;;;20.89;100.00
34482;BME280;20720;48.886;9.388;2022-07-25T03:38:12;97866.72;;;20.90;100.00
34482;BME280;20720;48.886;9.388;2022-07-25T03:40:38;97860.22;;;21.11;100.00
34482;BME280;20720;48.886;9.388;2022-07-25T03:43:03;97869.59;;;21.42;100.00
34482;BME280;20720;48.886;9.388;2022-07-25T03:45:28;97869.47;;;21.58;100.00
34482;BME280;20720;48.886;9.388;2022-07-25T03:47:53;97873.63;;;21.74;100.00
34482;BME280;20720;48.886;9.388;2022-07-25T03:50:19;97882.69;;;22.06;100.00
34482;BME280;20720;48.886;9.388;2022-07-25T03:52:44;97885.25;;;22.16;100.00
34482;BME280;20720;48.886;9.388;2022-07-25T03:55:09;97875.13;;;22.13;100.00
34482;BME280;20720;48.886;9.388;2022-07-25T03:57:35;97877.81;;;21.85;100.00
34482;BME280;20720;48.886;9.388;2022-07-25T04:00:00;97864.44;;;21.85;100.00
34482;BME280;20720;48.886;9.388;2022-07-25T04:02:26;97866.13;;;21.76;100.00
34482;BME280;20720;48.886;9.388;2022-07-25T04:04:51;97862.47;;;21.62;100.00
34482;BME280;20720;48.886;9.388;2022-07-25T04:07:16;97853.53;;;21.47;100.00
34482;BME280;20720;48.886;9.388;2022-07-25T04:09:42;97842.66;;;21.68;100.00
34482;BME280;20720;48.886;9.388;2022-07-25T04:12:07;97848.19;;;21.76;100.00
34482;BME280;20720;48.886;9.388;2022-07-25T04:14:32;97849.22;;;21.80;100.00
34482;BME280;20720;48.886;9.388;2022-07-25T04:16:58;97842.19;;;21.61;100.00
34482;BME280;20720;48.886;9.388;2022-07-25T04:19:23;97848.84;;;21.63;100.00
34482;BME280;20720;48.886;9.388;2022-07-25T04:21:48;97843.00;;;21.61;100.00
34482;BME280;20720;48.886;9.388;2022-07-25T04:24:13;97843.34;;;21.49;100.00
34482;BME280;20720;48.886;9.388;2022-07-25T04:26:38;97837.97;;;21.54;100.00
34482;BME280;20720;48.886;9.388;2022-07-25T04:29:03;97835.81;;;21.57;100.00
34482;BME280;20720;48.886;9.388;2022-07-25T04:31:29;97836.38;;;21.53;100.00
34482;BME280;20720;48.886;9.388;2022-07-25T04:33:54;97831.81;;;21.54;100.00
34482;BME280;20720;48.886;9.388;2022-07-25T04:36:19;97832.81;;;21.63;100.00
34482;BME280;20720;48.886;9.388;2022-07-25T04:38:44;97836.22;;;21.69;100.00
34482;BME280;20720;48.886;9.388;2022-07-25T04:41:10;97826.59;;;21.68;100.00
34482;BME280;20720;48.886;9.388;2022-07-25T04:43:35;97839.06;;;21.77;100.00
34482;BME280;20720;48.886;9.388;2022-07-25T04:46:01;97844.44;;;21.77;100.00
34482;BME280;20720;48.886;9.388;2022-07-25T04:48:26;97843.50;;;21.92;100.00
34482;BME280;20720;48.886;9.388;2022-07-25T04:50:51;97837.25;;;22.25;100.00
34482;BME280;20720;48.886;9.388;2022-07-25T04:53:16;97849.91;;;22.19;100.00
34482;BME280;20720;48.886;9.388;2022-07-25T04:55:42;97844.47;;;22.24;100.00
34482;BME280;20720;48.886;9.388;2022-07-25T04:58:07;97851.03;;;22.61;100.00
34482;BME280;20720;48.886;9.388;2022-07-25T05:00:32;97850.03;;;22.75;100.00
34482;BME280;20720;48.886;9.388;2022-07-25T05:02:57;97862.69;;;22.88;100.00
34482;BME280;20720;48.886;9.388;2022-07-25T05:05:23;97863.16;;;23.14;100.00
34482;BME280;20720;48.886;9.388;2022-07-25T05:07:48;97853.34;;;23.23;100.00
34482;BME280;20720;48.886;9.388;2022-07-25T05:10:13;97863.63;;;23.53;100.00
34482;BME280;20720;48.886;9.388;2022-07-25T05:12:39;97867.41;;;23.66;100.00
34482;BME280;20720;48.886;9.388;2022-07-25T05:15:04;97875.28;;;24.62;100.00
34482;BME280;20720;48.886;9.388;2022-07-25T05:17:30;97885.91;;;24.94;100.00
34482;BME280;20720;48.886;9.388;2022-07-25T05:19:56;97899.16;;;25.40;100.00
34482;BME280;20720;48.886;9.388;2022-07-25T05:22:21;97904.69;;;26.41;100.00
34482;BME280;20720;48.886;9.388;2022-07-25T05:24:46;97928.03;;;26.54;100.00
34482;BME280;20720;48.886;9.388;2022-07-25T05:27:12;97948.75;;;27.49;100.00
34482;BME280;20720;48.886;9.388;2022-07-25T05:29:37;97953.50;;;27.43;100.00
34482;BME280;20720;48.886;9.388;2022-07-25T05:32:02;97967.75;;;28.21;95.82
34482;BME280;20720;48.886;9.388;2022-07-25T05:34:28;97972.81;;;28.86;90.79
34482;BME280;20720;48.886;9.388;2022-07-25T05:36:53;97980.44;;;29.21;85.92
34482;BME280;20720;48.886;9.388;2022-07-25T05:39:18;97987.50;;;28.76;87.21
34482;BME280;20720;48.886;9.388;2022-07-25T05:41:43;97981.22;;;29.22;85.40
34482;BME280;20720;48.886;9.388;2022-07-25T05:44:08;97981.75;;;29.36;85.47
34482;BME280;20720;48.886;9.388;2022-07-25T05:46:34;97982.66;;;28.44;89.91
34482;BME280;20720;48.886;9.388;2022-07-25T05:48:59;97984.28;;;29.41;84.81
34482;BME280;20720;48.886;9.388;2022-07-25T05:51:25;97985.34;;;29.69;80.24
34482;BME280;20720;48.886;9.388;2022-07-25T05:53:50;97981.25;;;29.63;79.93
34482;BME280;20720;48.886;9.388;2022-07-25T05:56:15;97981.91;;;30.01;79.74
34482;BME280;20720;48.886;9.388;2022-07-25T05:58:40;97984.75;;;30.49;76.49
34482;BME280;20720;48.886;9.388;2022-07-25T06:01:06;97981.97;;;31.06;74.35
34482;BME280;20720;48.886;9.388;2022-07-25T06:03:32;97980.66;;;29.78;79.28
34482;BME280;20720;48.886;9.388;2022-07-25T06:05:58;97971.31;;;30.53;75.85
34482;BME280;20720;48.886;9.388;2022-07-25T06:08:23;97977.06;;;31.60;73.06
34482;BME280;20720;48.886;9.388;2022-07-25T06:10:48;97978.47;;;31.30;72.16
34482;BME280;20720;48.886;9.388;2022-07-25T06:13:14;97975.06;;;31.45;71.59
34482;BME280;20720;48.886;9.388;2022-07-25T06:15:39;97970.53;;;30.77;73.18
34482;BME280;20720;48.886;9.388;2022-07-25T06:18:04;97962.72;;;30.51;77.28
34482;BME280;20720;48.886;9.388;2022-07-25T06:20:29;97965.69;;;31.18;74.47
34482;BME280;20720;48.886;9.388;2022-07-25T06:22:54;97969.63;;;31.33;73.68
34482;BME280;20720;48.886;9.388;2022-07-25T06:25:19;97968.72;;;31.41;70.93
34482;BME280;20720;48.886;9.388;2022-07-25T06:27:45;97969.09;;;31.67;70.55
34482;BME280;20720;48.886;9.388;2022-07-25T06:30:11;97966.00;;;32.08;68.48
34482;BME280;20720;48.886;9.388;2022-07-25T06:32:36;97970.50;;;32.16;67.64
34482;BME280;20720;48.886;9.388;2022-07-25T06:35:02;97972.44;;;31.88;69.10
34482;BME280;20720;48.886;9.388;2022-07-25T06:37:27;97969.91;;;32.23;66.18
34482;BME280;20720;48.886;9.388;2022-07-25T06:39:52;97967.31;;;32.58;66.28
34482;BME280;20720;48.886;9.388;2022-07-25T06:42:18;97961.38;;;31.81;67.71
34482;BME280;20720;48.886;9.388;2022-07-25T06:44:43;97955.69;;;32.29;67.24
34482;BME280;20720;48.886;9.388;2022-07-25T06:47:08;97955.41;;;32.34;66.19
34482;BME280;20720;48.886;9.388;2022-07-25T06:49:37;97949.75;;;32.71;65.11
34482;BME280;20720;48.886;9.388;2022-07-25T06:52:02;97958.78;;;32.90;64.15
34482;BME280;20720;48.886;9.388;2022-07-25T06:54:27;97946.34;;;33.24;64.66
34482;BME280;20720;48.886;9.388;2022-07-25T06:56:52;97953.53;;;32.97;62.07
34482;BME280;20720;48.886;9.388;2022-07-25T06:59:19;97957.41;;;32.96;62.28
34482;BME280;20720;48.886;9.388;2022-07-25T07:01:44;97950.91;;;32.70;61.69
34482;BME280;20720;48.886;9.388;2022-07-25T07:04:09;97952.53;;;32.90;62.90
34482;BME280;20720;48.886;9.388;2022-07-25T07:06:34;97953.78;;;33.08;63.97
34482;BME280;20720;48.886;9.388;2022-07-25T07:09:01;97952.19;;;33.76;61.78
34482;BME280;20720;48.886;9.388;2022-07-25T07:11:26;97947.47;;;34.15;60.59
34482;BME280;20720;48.886;9.388;2022-07-25T07:13:51;97957.09;;;34.51;59.16
34482;BME280;20720;48.886;9.388;2022-07-25T07:16:17;97951.38;;;34.14;60.10
34482;BME280;20720;48.886;9.388;2022-07-25T07:18:42;97956.81;;;33.57;60.73
34482;BME280;20720;48.886;9.388;2022-07-25T07:21:07;97954.72;;;33.50;60.28
34482;BME280;20720;48.886;9.388;2022-07-25T07:23:33;97958.81;;;32.44;61.60
34482;BME280;20720;48.886;9.388;2022-07-25T07:25:59;97956.69;;;32.84;63.81
34482;BME280;20720;48.886;9.388;2022-07-25T07:28:24;97950.72;;;33.09;59.50
34482;BME280;20720;48.886;9.388;2022-07-25T07:30:49;97946.28;;;33.93;56.07
34482;BME280;20720;48.886;9.388;2022-07-25T07:33:14;97946.66;;;33.19;57.50
34482;BME280;20720;48.886;9.388;2022-07-25T07:35:42;97945.94;;;33.41;57.98
34482;BME280;20720;48.886;9.388;2022-07-25T07:38:07;97948.25;;;32.89;58.63
34482;BME280;20720;48.886;9.388;2022-07-25T07:40:33;97946.50;;;33.12;59.67
34482;BME280;20720;48.886;9.388;2022-07-25T07:42:58;97940.41;;;34.10;55.24
34482;BME280;20720;48.886;9.388;2022-07-25T07:45:26;97942.88;;;34.42;53.57
34482;BME280;20720;48.886;9.388;2022-07-25T07:47:52;97944.28;;;33.17;56.14
34482;BME280;20720;48.886;9.388;2022-07-25T07:50:20;97937.88;;;33.64;58.29
34482;BME280;20720;48.886;9.388;2022-07-25T07:52:46;97930.63;;;34.32;55.54
34482;BME280;20720;48.886;9.388;2022-07-25T07:55:12;97931.03;;;35.02;53.82
34482;BME280;20720;48.886;9.388;2022-07-25T07:57:56;97932.78;;;35.43;52.57
34482;BME280;20720;48.886;9.388;2022-07-25T08:00:21;97928.72;;;35.93;51.79
34482;BME280;20720;48.886;9.388;2022-07-25T08:02:48;97930.34;;;35.38;51.67
34482;BME280;20720;48.886;9.388;2022-07-25T08:08:08;97923.81;;;34.00;54.98
34482;BME280;20720;48.886;9.388;2022-07-25T08:10:36;97918.91;;;33.90;56.12
34482;BME280;20720;48.886;9.388;2022-07-25T08:13:02;97924.13;;;34.85;52.78
34482;BME280;20720;48.886;9.388;2022-07-25T08:15:36;97931.09;;;34.83;53.32
34482;BME280;20720;48.886;9.388;2022-07-25T08:18:01;97934.22;;;33.75;56.55
34482;BME280;20720;48.886;9.388;2022-07-25T08:20:28;97934.09;;;34.06;55.77
34482;BME280;20720;48.886;9.388;2022-07-25T08:22:53;97934.94;;;34.10;55.22
34482;BME280;20720;48.886;9.388;2022-07-25T08:25:19;97937.81;;;33.98;56.32
34482;BME280;20720;48.886;9.388;2022-07-25T08:27:44;97941.50;;;34.74;54.76
34482;BME280;20720;48.886;9.388;2022-07-25T08:30:10;97938.72;;;34.48;54.51
34482;BME280;20720;48.886;9.388;2022-07-25T08:32:46;97939.53;;;34.48;54.92
34482;BME280;20720;48.886;9.388;2022-07-25T08:35:11;97934.38;;;35.77;50.45
34482;BME280;20720;48.886;9.388;2022-07-25T08:37:37;97939.44;;;36.09;49.06
34482;BME280;20720;48.886;9.388;2022-07-25T08:40:02;97931.00;;;36.24;49.33
34482;BME280;20720;48.886;9.388;2022-07-25T08:42:27;97935.31;;;35.29;50.91
34482;BME280;20720;48.886;9.388;2022-07-25T08:44:55;97928.19;;;36.17;48.44
34482;BME280;20720;48.886;9.388;2022-07-25T08:47:21;97932.19;;;36.27;47.97
34482;BME280;20720;48.886;9.388;2022-07-25T08:49:46;97929.41;;;37.18;46.07
34482;BME280;20720;48.886;9.388;2022-07-25T08:52:12;97924.81;;;38.39;43.13
34482;BME280;20720;48.886;9.388;2022-07-25T08:54:37;97922.16;;;36.85;46.08
34482;BME280;20720;48.886;9.388;2022-07-25T08:57:02;97916.63;;;36.81;47.43
34482;BME280;20720;48.886;9.388;2022-07-25T08:59:29;97924.16;;;37.56;45.22
34482;BME280;20720;48.886;9.388;2022-07-25T09:01:55;97923.03;;;37.71;43.03
34482;BME280;20720;48.886;9.388;2022-07-25T09:04:21;97931.31;;;37.07;42.31
34482;BME280;20720;48.886;9.388;2022-07-25T09:06:50;97917.38;;;37.33;41.83
34482;BME280;20720;48.886;9.388;2022-07-25T09:09:16;97920.06;;;38.29;41.95
34482;BME280;20720;48.886;9.388;2022-07-25T09:11:41;97918.16;;;38.72;38.79
34482;BME280;20720;48.886;9.388;2022-07-25T09:14:08;97920.19;;;37.47;40.86
34482;BME280;20720;48.886;9.388;2022-07-25T09:16:34;97915.78;;;38.67;40.13
34482;BME280;20720;48.886;9.388;2022-07-25T09:19:13;97913.03;;;38.88;38.07
34482;BME280;20720;48.886;9.388;2022-07-25T09:21:39;97913.25;;;39.50;38.28
34482;BME280;20720;48.886;9.388;2022-07-25T09:24:09;97915.59;;;40.38;37.63
34482;BME280;20720;48.886;9.388;2022-07-25T09:26:45;97908.78;;;39.84;37.09
34482;BME280;20720;48.886;9.388;2022-07-25T09:29:17;97916.19;;;40.01;37.47
34482;BME280;20720;48.886;9.388;2022-07-25T09:31:43;97911.69;;;39.56;36.91
34482;BME280;20720;48.886;9.388;2022-07-25T09:34:08;97907.94;;;38.30;38.08
34482;BME280;20720;48.886;9.388;2022-07-25T09:36:34;97915.75;;;38.92;38.31
34482;BME280;20720;48.886;9.388;2022-07-25T09:39:03;97909.75;;;39.49;38.24
34482;BME280;20720;48.886;9.388;2022-07-25T09:41:34;97905.63;;;39.89;36.53
34482;BME280;20720;48.886;9.388;2022-07-25T09:44:00;97907.06;;;41.10;35.66
34482;BME280;20720;48.886;9.388;2022-07-25T09:46:28;97910.00;;;40.93;35.62
34482;BME280;20720;48.886;9.388;2022-07-25T09:48:55;97910.91;;;40.79;35.83
34482;BME280;20720;48.886;9.388;2022-07-25T09:51:21;97902.47;;;38.76;37.03
34482;BME280;20720;48.886;9.388;2022-07-25T09:53:47;97907.00;;;39.49;38.39
34482;BME280;20720;48.886;9.388;2022-07-25T09:56:12;97898.25;;;40.85;36.55
34482;BME280;20720;48.886;9.388;2022-07-25T09:58:38;97900.63;;;40.32;37.27
34482;BME280;20720;48.886;9.388;2022-07-25T10:01:04;97897.38;;;40.95;35.81
34482;BME280;20720;48.886;9.388;2022-07-25T10:03:47;97891.16;;;42.42;32.68
34482;BME280;20720;48.886;9.388;2022-07-25T10:08:39;97891.50;;;42.44;32.96
34482;BME280;20720;48.886;9.388;2022-07-25T10:11:11;97893.72;;;42.03;33.68
34482;BME280;20720;48.886;9.388;2022-07-25T10:13:41;97898.28;;;41.56;34.45
34482;BME280;20720;48.886;9.388;2022-07-25T10:16:13;97888.22;;;41.99;33.17
34482;BME280;20720;48.886;9.388;2022-07-25T10:18:45;97883.56;;;41.33;34.43
34482;BME280;20720;48.886;9.388;2022-07-25T10:21:11;97881.69;;;41.26;32.98
34482;BME280;20720;48.886;9.388;2022-07-25T10:23:36;97876.22;;;42.36;32.42
34482;BME280;20720;48.886;9.388;2022-07-25T10:26:08;97871.75;;;42.19;31.94
34482;BME280;20720;48.886;9.388;2022-07-25T10:28:56;97864.16;;;42.73;31.13
34482;BME280;20720;48.886;9.388;2022-07-25T10:34:01;97859.19;;;43.07;29.69
34482;BME280;20720;48.886;9.388;2022-07-25T10:36:38;97853.81;;;40.32;32.92
34482;BME280;20720;48.886;9.388;2022-07-25T10:39:06;97859.00;;;41.42;32.14
34482;BME280;20720;48.886;9.388;2022-07-25T10:41:32;97852.09;;;42.86;31.26
34482;BME280;20720;48.886;9.388;2022-07-25T10:44:02;97852.94;;;41.84;30.94
34482;BME280;20720;48.886;9.388;2022-07-25T10:46:28;97850.91;;;40.02;33.44
34482;BME280;20720;48.886;9.388;2022-07-25T10:48:58;97852.94;;;41.23;32.29
34482;BME280;20720;48.886;9.388;2022-07-25T10:51:28;97846.88;;;42.19;32.12
34482;BME280;20720;48.886;9.388;2022-07-25T10:53:53;97843.97;;;43.74;29.98
34482;BME280;20720;48.886;9.388;2022-07-25T10:56:20;97845.59;;;44.07;28.58
34482;BME280;20720;48.886;9.388;2022-07-25T10:58:50;97848.72;;;42.75;29.05
34482;BME280;20720;48.886;9.388;2022-07-25T11:01:23;97838.78;;;41.52;30.60
34482;BME280;20720;48.886;9.388;2022-07-25T11:03:49;97839.00;;;43.46;29.34
34482;BME280;20720;48.886;9.388;2022-07-25T11:06:15;97830.78;;;44.14;28.47
34482;BME280;20720;48.886;9.388;2022-07-25T11:08:41;97835.66;;;44.87;28.55
34482;BME280;20720;48.886;9.388;2022-07-25T11:11:06;97829.53;;;43.08;28.36
34482;BME280;20720;48.886;9.388;2022-07-25T11:13:35;97815.88;;;42.77;28.49
34482;BME280;20720;48.886;9.388;2022-07-25T11:16:00;97820.72;;;42.50;28.94
34482;BME280;20720;48.886;9.388;2022-07-25T11:18:39;97822.69;;;42.50;28.57
34482;BME280;20720;48.886;9.388;2022-07-25T11:21:05;97813.78;;;42.62;28.32
34482;BME280;20720;48.886;9.388;2022-07-25T11:23:31;97811.16;;;42.32;29.96
34482;BME280;20720;48.886;9.388;2022-07-25T11:26:09;97807.56;;;43.20;28.57
34482;BME280;20720;48.886;9.388;2022-07-25T11:28:38;97804.84;;;42.31;29.04
34482;BME280;20720;48.886;9.388;2022-07-25T11:31:03;97798.31;;;42.45;28.94
34482;BME280;20720;48.886;9.388;2022-07-25T11:33:29;97799.09;;;42.45;28.66
34482;BME280;20720;48.886;9.388;2022-07-25T11:35:54;97794.66;;;42.28;29.10
34482;BME280;20720;48.886;9.388;2022-07-25T11:38:20;97791.06;;;42.93;28.96
34482;BME280;20720;48.886;9.388;2022-07-25T11:40:45;97797.69;;;44.84;26.33
34482;BME280;20720;48.886;9.388;2022-07-25T11:43:18;97792.75;;;45.04;26.28
34482;BME280;20720;48.886;9.388;2022-07-25T11:45:43;97777.44;;;42.17;27.33
34482;BME280;20720;48.886;9.388;2022-07-25T11:48:09;97783.97;;;44.32;26.18
34482;BME280;20720;48.886;9.388;2022-07-25T11:50:36;97787.19;;;44.30;26.95
34482;BME280;20720;48.886;9.388;2022-07-25T11:53:03;97794.06;;;44.70;26.34
34482;BME280;20720;48.886;9.388;2022-07-25T11:55:29;97785.63;;;45.44;25.23
34482;BME280;20720;48.886;9.388;2022-07-25T11:57:59;97780.22;;;44.54;26.15
34482;BME280;20720;48.886;9.388;2022-07-25T12:00:24;97785.72;;;44.26;26.05
34482;BME280;20720;48.886;9.388;2022-07-25T12:02:49;97775.41;;;43.42;26.82
34482;BME280;20720;48.886;9.388;2022-07-25T12:05:16;97774.97;;;43.63;26.12
34482;BME280;20720;48.886;9.388;2022-07-25T12:07:43;97765.53;;;43.77;26.34
34482;BME280;20720;48.886;9.388;2022-07-25T12:10:13;97759.66;;;43.04;27.15
34482;BME280;20720;48.886;9.388;2022-07-25T12:12:43;97766.91;;;44.49;26.20
34482;BME280;20720;48.886;9.388;2022-07-25T12:15:09;97759.28;;;45.99;24.93
34482;BME280;20720;48.886;9.388;2022-07-25T12:17:35;97758.69;;;43.65;25.52
34482;BME280;20720;48.886;9.388;2022-07-25T12:20:01;97757.13;;;45.15;25.21
34482;BME280;20720;48.886;9.388;2022-07-25T12:22:26;97758.03;;;46.81;24.44
34482;BME280;20720;48.886;9.388;2022-07-25T12:24:51;97752.41;;;45.66;24.24
34482;BME280;20720;48.886;9.388;2022-07-25T12:27:16;97752.59;;;46.09;24.46
34482;BME280;20720;48.886;9.388;2022-07-25T12:29:41;97761.97;;;43.76;26.77
34482;BME280;20720;48.886;9.388;2022-07-25T12:32:06;97749.72;;;42.01;27.64
34482;BME280;20720;48.886;9.388;2022-07-25T12:34:32;97757.31;;;42.82;28.42
34482;BME280;20720;48.886;9.388;2022-07-25T12:36:57;97753.97;;;43.98;26.91
34482;BME280;20720;48.886;9.388;2022-07-25T12:39:22;97749.81;;;44.35;26.64
34482;BME280;20720;48.886;9.388;2022-07-25T12:41:48;97747.41;;;44.37;25.09
34482;BME280;20720;48.886;9.388;2022-07-25T12:44:13;97753.38;;;45.34;24.88
34482;BME280;20720;48.886;9.388;2022-07-25T12:46:38;97743.00;;;45.09;25.11
34482;BME280;20720;48.886;9.388;2022-07-25T12:49:05;97746.25;;;46.08;24.18
34482;BME280;20720;48.886;9.388;2022-07-25T12:51:30;97741.06;;;46.66;24.49
34482;BME280;20720;48.886;9.388;2022-07-25T12:53:55;97741.28;;;46.59;23.51
34482;BME280;20720;48.886;9.388;2022-07-25T12:56:21;97749.28;;;44.85;25.10